To NAV CANADA Home Page Login to a new session Search on AWWS site Feedback and Comments Disclaimer Vers la page française équivalente Tips FAQ What's new on the site To the Forecasts and Observations / NOTAM section To "File a Flight Plan" website Publications and other links Update of the User's profile FIC Telephone Numbers My Weather Data Folder Route Weather Data Regional Weather Data Local Weather Data To the Forecasts and Observations / NOTAM section
Request Generated 03/28/2017 at 02:18:45 UTC . Weather information available at that time is displayed.

METAR/TAF

BURWASH/YT    (show WxCam)

METAR CYDB 280200Z AUTO 11012G22KT 9SM CLR M02/M07 A2935 RMK SLP001=
METAR CYDB 280100Z AUTO 12014G20KT 9SM CLR M01/M07 A2936 RMK SLP006=
METAR CYDB 280000Z AUTO 13015G20KT 9SM CLR M01/M08 A2938 RMK SLP012=

TAF CYDB 272339Z 2800/2812 12010KT P6SM SCT100 BKN240
RMK NXT FCST BY 280600Z=
Your time UTC time
Weather data provided by Environment Canada and NAV CANADA